sensor_id;sensor_type;location;lat;lon;timestamp;P1;durP1;ratioP1;P2;durP2;ratioP2
44532;SDS011;48673;53.016;-2.258;2022-07-17T00:02:59;15.82;;;9.40;;
44532;SDS011;48673;53.016;-2.258;2022-07-17T00:06:36;15.90;;;8.70;;
44532;SDS011;48673;53.016;-2.258;2022-07-17T00:09:23;12.77;;;8.50;;
44532;SDS011;48673;53.016;-2.258;2022-07-17T00:12:07;15.02;;;8.68;;
44532;SDS011;48673;53.016;-2.258;2022-07-17T00:18:16;16.17;;;9.35;;
44532;SDS011;48673;53.016;-2.258;2022-07-17T00:20:57;11.73;;;8.23;;
44532;SDS011;48673;53.016;-2.258;2022-07-17T00:27:09;18.00;;;8.50;;
44532;SDS011;48673;53.016;-2.258;2022-07-17T00:29:56;14.18;;;8.73;;
44532;SDS011;48673;53.016;-2.258;2022-07-17T00:32:36;13.25;;;8.48;;
44532;SDS011;48673;53.016;-2.258;2022-07-17T00:35:12;15.55;;;8.70;;
44532;SDS011;48673;53.016;-2.258;2022-07-17T00:37:53;13.02;;;8.73;;
44532;SDS011;48673;53.016;-2.258;2022-07-17T00:40:45;12.68;;;8.60;;
44532;SDS011;48673;53.016;-2.258;2022-07-17T00:44:19;14.65;;;8.63;;
44532;SDS011;48673;53.016;-2.258;2022-07-17T00:58:00;17.75;;;9.25;;
44532;SDS011;48673;53.016;-2.258;2022-07-17T01:06:03;14.32;;;9.65;;
44532;SDS011;48673;53.016;-2.258;2022-07-17T01:15:29;15.05;;;9.63;;
44532;SDS011;48673;53.016;-2.258;2022-07-17T01:19:07;12.85;;;9.20;;
44532;SDS011;48673;53.016;-2.258;2022-07-17T01:25:24;17.13;;;11.38;;
44532;SDS011;48673;53.016;-2.258;2022-07-17T01:32:45;19.08;;;10.70;;
44532;SDS011;48673;53.016;-2.258;2022-07-17T01:35:36;17.35;;;10.32;;
44532;SDS011;48673;53.016;-2.258;2022-07-17T01:38:44;15.57;;;10.15;;
44532;SDS011;48673;53.016;-2.258;2022-07-17T01:44:52;17.88;;;10.77;;
44532;SDS011;48673;53.016;-2.258;2022-07-17T01:47:39;14.90;;;9.68;;
44532;SDS011;48673;53.016;-2.258;2022-07-17T02:04:39;17.13;;;9.13;;
44532;SDS011;48673;53.016;-2.258;2022-07-17T02:08:08;15.93;;;9.88;;
44532;SDS011;48673;53.016;-2.258;2022-07-17T02:11:09;18.70;;;10.38;;
44532;SDS011;48673;53.016;-2.258;2022-07-17T02:13:56;18.63;;;10.85;;
44532;SDS011;48673;53.016;-2.258;2022-07-17T02:17:01;13.95;;;9.45;;
44532;SDS011;48673;53.016;-2.258;2022-07-17T02:23:49;16.67;;;10.43;;
44532;SDS011;48673;53.016;-2.258;2022-07-17T02:27:39;15.45;;;11.23;;
44532;SDS011;48673;53.016;-2.258;2022-07-17T02:31:25;16.23;;;10.95;;
44532;SDS011;48673;53.016;-2.258;2022-07-17T02:34:45;16.85;;;10.63;;
44532;SDS011;48673;53.016;-2.258;2022-07-17T02:37:50;15.07;;;10.07;;
44532;SDS011;48673;53.016;-2.258;2022-07-17T02:41:44;14.27;;;10.27;;
44532;SDS011;48673;53.016;-2.258;2022-07-17T02:48:35;22.20;;;11.77;;
44532;SDS011;48673;53.016;-2.258;2022-07-17T02:52:31;15.63;;;10.23;;
44532;SDS011;48673;53.016;-2.258;2022-07-17T02:55:33;17.42;;;11.38;;
44532;SDS011;48673;53.016;-2.258;2022-07-17T02:58:29;17.00;;;11.57;;
44532;SDS011;48673;53.016;-2.258;2022-07-17T03:00:59;17.80;;;11.43;;
44532;SDS011;48673;53.016;-2.258;2022-07-17T03:04:11;17.15;;;12.07;;
44532;SDS011;48673;53.016;-2.258;2022-07-17T03:10:13;17.55;;;11.85;;
44532;SDS011;48673;53.016;-2.258;2022-07-17T03:13:17;18.30;;;11.35;;
44532;SDS011;48673;53.016;-2.258;2022-07-17T03:15:57;15.75;;;11.00;;
44532;SDS011;48673;53.016;-2.258;2022-07-17T03:18:56;16.77;;;11.63;;
44532;SDS011;48673;53.016;-2.258;2022-07-17T03:21:32;18.77;;;11.63;;
44532;SDS011;48673;53.016;-2.258;2022-07-17T03:24:01;16.88;;;10.20;;
44532;SDS011;48673;53.016;-2.258;2022-07-17T03:26:47;16.83;;;10.82;;
44532;SDS011;48673;53.016;-2.258;2022-07-17T03:33:18;17.42;;;11.80;;
44532;SDS011;48673;53.016;-2.258;2022-07-17T03:40:18;13.35;;;10.60;;
44532;SDS011;48673;53.016;-2.258;2022-07-17T03:43:41;17.42;;;10.50;;
44532;SDS011;48673;53.016;-2.258;2022-07-17T03:46:28;15.65;;;11.15;;
44532;SDS011;48673;53.016;-2.258;2022-07-17T03:52:50;19.10;;;10.70;;
44532;SDS011;48673;53.016;-2.258;2022-07-17T03:55:44;17.45;;;11.52;;
44532;SDS011;48673;53.016;-2.258;2022-07-17T04:08:05;16.27;;;11.27;;
44532;SDS011;48673;53.016;-2.258;2022-07-17T04:19:12;15.38;;;11.30;;
44532;SDS011;48673;53.016;-2.258;2022-07-17T04:21:41;16.85;;;11.57;;
44532;SDS011;48673;53.016;-2.258;2022-07-17T04:24:12;18.50;;;11.50;;
44532;SDS011;48673;53.016;-2.258;2022-07-17T04:26:54;16.55;;;11.75;;
44532;SDS011;48673;53.016;-2.258;2022-07-17T04:29:38;14.98;;;11.13;;
44532;SDS011;48673;53.016;-2.258;2022-07-17T04:32:09;18.33;;;12.43;;
44532;SDS011;48673;53.016;-2.258;2022-07-17T04:34:46;21.08;;;12.20;;
44532;SDS011;48673;53.016;-2.258;2022-07-17T04:37:15;19.23;;;12.88;;
44532;SDS011;48673;53.016;-2.258;2022-07-17T04:39:47;18.00;;;11.65;;
44532;SDS011;48673;53.016;-2.258;2022-07-17T04:42:16;18.65;;;11.82;;
44532;SDS011;48673;53.016;-2.258;2022-07-17T04:44:51;16.95;;;11.88;;
44532;SDS011;48673;53.016;-2.258;2022-07-17T04:47:35;17.40;;;12.10;;
44532;SDS011;48673;53.016;-2.258;2022-07-17T04:50:04;17.80;;;12.07;;
44532;SDS011;48673;53.016;-2.258;2022-07-17T04:52:38;18.40;;;12.38;;
44532;SDS011;48673;53.016;-2.258;2022-07-17T04:55:15;16.63;;;11.45;;
44532;SDS011;48673;53.016;-2.258;2022-07-17T05:00:50;18.17;;;12.38;;
44532;SDS011;48673;53.016;-2.258;2022-07-17T05:03:22;21.98;;;11.80;;
44532;SDS011;48673;53.016;-2.258;2022-07-17T05:05:53;17.77;;;11.95;;
44532;SDS011;48673;53.016;-2.258;2022-07-17T05:08:24;18.98;;;11.00;;
44532;SDS011;48673;53.016;-2.258;2022-07-17T05:11:11;20.50;;;11.82;;
44532;SDS011;48673;53.016;-2.258;2022-07-17T05:13:50;17.40;;;11.07;;
44532;SDS011;48673;53.016;-2.258;2022-07-17T05:16:22;16.88;;;11.77;;
44532;SDS011;48673;53.016;-2.258;2022-07-17T05:18:55;19.85;;;11.15;;
44532;SDS011;48673;53.016;-2.258;2022-07-17T05:21:41;20.30;;;12.27;;
44532;SDS011;48673;53.016;-2.258;2022-07-17T05:24:12;15.63;;;11.35;;
44532;SDS011;48673;53.016;-2.258;2022-07-17T05:26:50;14.40;;;10.40;;
44532;SDS011;48673;53.016;-2.258;2022-07-17T05:30:06;19.75;;;10.70;;
44532;SDS011;48673;53.016;-2.258;2022-07-17T05:32:41;15.27;;;9.95;;
44532;SDS011;48673;53.016;-2.258;2022-07-17T05:35:31;14.80;;;10.95;;
44532;SDS011;48673;53.016;-2.258;2022-07-17T05:38:13;16.60;;;11.38;;
44532;SDS011;48673;53.016;-2.258;2022-07-17T05:40:55;14.93;;;10.90;;
44532;SDS011;48673;53.016;-2.258;2022-07-17T05:43:30;15.82;;;11.05;;
44532;SDS011;48673;53.016;-2.258;2022-07-17T05:46:02;14.80;;;10.90;;
44532;SDS011;48673;53.016;-2.258;2022-07-17T05:48:51;18.23;;;11.20;;
44532;SDS011;48673;53.016;-2.258;2022-07-17T05:51:42;18.88;;;11.43;;
44532;SDS011;48673;53.016;-2.258;2022-07-17T05:54:28;16.17;;;11.32;;
44532;SDS011;48673;53.016;-2.258;2022-07-17T05:57:15;18.48;;;10.98;;
44532;SDS011;48673;53.016;-2.258;2022-07-17T05:59:53;17.67;;;11.10;;
44532;SDS011;48673;53.016;-2.258;2022-07-17T06:02:21;17.50;;;10.82;;
44532;SDS011;48673;53.016;-2.258;2022-07-17T06:04:57;16.25;;;11.30;;
44532;SDS011;48673;53.016;-2.258;2022-07-17T06:07:49;15.25;;;11.25;;
44532;SDS011;48673;53.016;-2.258;2022-07-17T06:10:36;20.73;;;10.77;;
44532;SDS011;48673;53.016;-2.258;2022-07-17T06:13:27;16.75;;;11.18;;
44532;SDS011;48673;53.016;-2.258;2022-07-17T06:16:00;18.65;;;12.43;;
44532;SDS011;48673;53.016;-2.258;2022-07-17T06:18:45;14.18;;;10.45;;
44532;SDS011;48673;53.016;-2.258;2022-07-17T06:21:27;13.25;;;10.48;;
44532;SDS011;48673;53.016;-2.258;2022-07-17T06:23:58;14.32;;;10.77;;
44532;SDS011;48673;53.016;-2.258;2022-07-17T06:26:28;20.65;;;11.80;;
44532;SDS011;48673;53.016;-2.258;2022-07-17T06:29:02;18.17;;;11.38;;
44532;SDS011;48673;53.016;-2.258;2022-07-17T06:31:34;17.75;;;10.93;;
44532;SDS011;48673;53.016;-2.258;2022-07-17T06:34:15;16.92;;;10.98;;
44532;SDS011;48673;53.016;-2.258;2022-07-17T06:36:59;17.52;;;11.90;;
44532;SDS011;48673;53.016;-2.258;2022-07-17T06:39:30;13.90;;;10.20;;
44532;SDS011;48673;53.016;-2.258;2022-07-17T06:41:58;25.92;;;11.07;;
44532;SDS011;48673;53.016;-2.258;2022-07-17T06:44:27;13.32;;;9.98;;
44532;SDS011;48673;53.016;-2.258;2022-07-17T06:46:55;14.63;;;9.17;;
44532;SDS011;48673;53.016;-2.258;2022-07-17T06:49:27;15.15;;;9.93;;
44532;SDS011;48673;53.016;-2.258;2022-07-17T06:51:55;17.23;;;9.32;;
44532;SDS011;48673;53.016;-2.258;2022-07-17T06:54:24;17.43;;;10.03;;
44532;SDS011;48673;53.016;-2.258;2022-07-17T06:59:21;16.95;;;10.23;;
44532;SDS011;48673;53.016;-2.258;2022-07-17T07:01:49;13.52;;;9.75;;
44532;SDS011;48673;53.016;-2.258;2022-07-17T07:04:17;14.70;;;10.23;;
44532;SDS011;48673;53.016;-2.258;2022-07-17T07:06:44;14.82;;;9.93;;
44532;SDS011;48673;53.016;-2.258;2022-07-17T07:09:12;16.52;;;10.10;;
44532;SDS011;48673;53.016;-2.258;2022-07-17T07:11:43;15.98;;;9.95;;
44532;SDS011;48673;53.016;-2.258;2022-07-17T07:14:10;23.20;;;10.40;;
44532;SDS011;48673;53.016;-2.258;2022-07-17T07:16:38;17.13;;;11.23;;
44532;SDS011;48673;53.016;-2.258;2022-07-17T07:19:06;14.68;;;9.52;;
44532;SDS011;48673;53.016;-2.258;2022-07-17T07:21:34;12.98;;;10.02;;
44532;SDS011;48673;53.016;-2.258;2022-07-17T07:24:02;13.93;;;9.17;;
44532;SDS011;48673;53.016;-2.258;2022-07-17T07:26:30;15.30;;;10.07;;
44532;SDS011;48673;53.016;-2.258;2022-07-17T07:28:58;10.48;;;8.18;;
44532;SDS011;48673;53.016;-2.258;2022-07-17T07:31:28;13.95;;;9.65;;
44532;SDS011;48673;53.016;-2.258;2022-07-17T07:33:58;13.40;;;8.98;;
44532;SDS011;48673;53.016;-2.258;2022-07-17T07:36:30;12.45;;;8.75;;
44532;SDS011;48673;53.016;-2.258;2022-07-17T07:39:01;15.25;;;8.07;;
44532;SDS011;48673;53.016;-2.258;2022-07-17T07:44:01;13.95;;;7.75;;
44532;SDS011;48673;53.016;-2.258;2022-07-17T07:46:34;11.27;;;7.80;;
44532;SDS011;48673;53.016;-2.258;2022-07-17T07:49:09;13.55;;;7.70;;
44532;SDS011;48673;53.016;-2.258;2022-07-17T07:51:38;14.85;;;8.00;;
44532;SDS011;48673;53.016;-2.258;2022-07-17T07:54:28;10.48;;;7.20;;
44532;SDS011;48673;53.016;-2.258;2022-07-17T07:56:59;10.32;;;7.18;;
44532;SDS011;48673;53.016;-2.258;2022-07-17T07:59:27;9.30;;;6.80;;
44532;SDS011;48673;53.016;-2.258;2022-07-17T08:02:00;15.40;;;6.65;;
44532;SDS011;48673;53.016;-2.258;2022-07-17T08:04:30;11.43;;;7.22;;
44532;SDS011;48673;53.016;-2.258;2022-07-17T08:06:58;10.80;;;6.40;;
44532;SDS011;48673;53.016;-2.258;2022-07-17T08:09:26;11.45;;;6.60;;
44532;SDS011;48673;53.016;-2.258;2022-07-17T08:11:55;8.90;;;6.28;;
44532;SDS011;48673;53.016;-2.258;2022-07-17T08:14:37;10.80;;;6.25;;
44532;SDS011;48673;53.016;-2.258;2022-07-17T08:17:05;8.05;;;5.93;;
44532;SDS011;48673;53.016;-2.258;2022-07-17T08:22:03;10.95;;;6.30;;
44532;SDS011;48673;53.016;-2.258;2022-07-17T08:24:32;11.33;;;7.00;;
44532;SDS011;48673;53.016;-2.258;2022-07-17T08:27:01;16.45;;;6.55;;
44532;SDS011;48673;53.016;-2.258;2022-07-17T08:29:34;8.27;;;5.93;;
44532;SDS011;48673;53.016;-2.258;2022-07-17T08:32:23;10.48;;;6.22;;
44532;SDS011;48673;53.016;-2.258;2022-07-17T08:34:53;7.78;;;5.88;;
44532;SDS011;48673;53.016;-2.258;2022-07-17T08:37:27;8.52;;;5.28;;
44532;SDS011;48673;53.016;-2.258;2022-07-17T08:39:57;10.75;;;7.05;;
44532;SDS011;48673;53.016;-2.258;2022-07-17T08:42:26;11.00;;;6.82;;
44532;SDS011;48673;53.016;-2.258;2022-07-17T08:45:04;12.35;;;6.72;;
44532;SDS011;48673;53.016;-2.258;2022-07-17T08:47:38;8.07;;;6.25;;
44532;SDS011;48673;53.016;-2.258;2022-07-17T08:50:21;8.88;;;6.28;;
44532;SDS011;48673;53.016;-2.258;2022-07-17T08:53:05;9.60;;;6.05;;
44532;SDS011;48673;53.016;-2.258;2022-07-17T08:55:58;8.55;;;5.97;;
44532;SDS011;48673;53.016;-2.258;2022-07-17T08:58:27;15.85;;;5.35;;
44532;SDS011;48673;53.016;-2.258;2022-07-17T09:00:58;14.75;;;6.30;;
44532;SDS011;48673;53.016;-2.258;2022-07-17T09:03:26;12.65;;;5.55;;
44532;SDS011;48673;53.016;-2.258;2022-07-17T09:05:56;5.72;;;4.68;;
44532;SDS011;48673;53.016;-2.258;2022-07-17T09:08:24;7.80;;;5.23;;
44532;SDS011;48673;53.016;-2.258;2022-07-17T09:10:54;11.80;;;4.57;;
44532;SDS011;48673;53.016;-2.258;2022-07-17T09:13:24;9.90;;;4.75;;
44532;SDS011;48673;53.016;-2.258;2022-07-17T09:15:53;6.90;;;3.90;;
44532;SDS011;48673;53.016;-2.258;2022-07-17T09:18:26;5.53;;;3.60;;
44532;SDS011;48673;53.016;-2.258;2022-07-17T09:23:25;4.53;;;2.92;;
44532;SDS011;48673;53.016;-2.258;2022-07-17T09:25:54;7.78;;;3.05;;
44532;SDS011;48673;53.016;-2.258;2022-07-17T09:28:23;5.80;;;3.28;;
44532;SDS011;48673;53.016;-2.258;2022-07-17T09:30:52;5.50;;;3.40;;
44532;SDS011;48673;53.016;-2.258;2022-07-17T09:33:23;4.45;;;3.17;;
44532;SDS011;48673;53.016;-2.258;2022-07-17T09:35:56;4.32;;;2.58;;
44532;SDS011;48673;53.016;-2.258;2022-07-17T09:38:35;7.38;;;3.40;;
44532;SDS011;48673;53.016;-2.258;2022-07-17T09:41:16;4.85;;;2.53;;
44532;SDS011;48673;53.016;-2.258;2022-07-17T09:43:52;4.57;;;3.08;;
44532;SDS011;48673;53.016;-2.258;2022-07-17T09:46:27;5.32;;;2.78;;
44532;SDS011;48673;53.016;-2.258;2022-07-17T09:49:03;5.47;;;2.60;;
44532;SDS011;48673;53.016;-2.258;2022-07-17T09:51:36;4.00;;;2.60;;
44532;SDS011;48673;53.016;-2.258;2022-07-17T09:54:12;4.28;;;2.83;;
44532;SDS011;48673;53.016;-2.258;2022-07-17T09:56:45;3.77;;;2.73;;
44532;SDS011;48673;53.016;-2.258;2022-07-17T09:59:18;4.72;;;2.70;;
44532;SDS011;48673;53.016;-2.258;2022-07-17T10:01:46;6.57;;;2.65;;
44532;SDS011;48673;53.016;-2.258;2022-07-17T10:04:18;6.18;;;2.63;;
44532;SDS011;48673;53.016;-2.258;2022-07-17T10:09:47;5.93;;;1.92;;
44532;SDS011;48673;53.016;-2.258;2022-07-17T10:12:17;6.95;;;2.63;;
44532;SDS011;48673;53.016;-2.258;2022-07-17T10:14:58;3.45;;;2.40;;
44532;SDS011;48673;53.016;-2.258;2022-07-17T10:21:15;7.97;;;2.58;;
44532;SDS011;48673;53.016;-2.258;2022-07-17T10:23:47;4.63;;;2.00;;
44532;SDS011;48673;53.016;-2.258;2022-07-17T10:26:32;15.50;;;2.58;;
44532;SDS011;48673;53.016;-2.258;2022-07-17T10:29:29;5.35;;;2.53;;
44532;SDS011;48673;53.016;-2.258;2022-07-17T10:32:19;5.60;;;2.15;;
44532;SDS011;48673;53.016;-2.258;2022-07-17T10:34:48;3.15;;;2.03;;
44532;SDS011;48673;53.016;-2.258;2022-07-17T10:37:24;7.72;;;2.30;;
44532;SDS011;48673;53.016;-2.258;2022-07-17T10:45:15;3.88;;;2.28;;
44532;SDS011;48673;53.016;-2.258;2022-07-17T10:47:47;10.45;;;1.90;;
44532;SDS011;48673;53.016;-2.258;2022-07-17T10:55:35;4.95;;;2.50;;
44532;SDS011;48673;53.016;-2.258;2022-07-17T10:58:04;2.72;;;2.22;;
44532;SDS011;48673;53.016;-2.258;2022-07-17T11:00:41;3.22;;;2.25;;
44532;SDS011;48673;53.016;-2.258;2022-07-17T11:03:11;3.38;;;2.25;;
44532;SDS011;48673;53.016;-2.258;2022-07-17T11:05:39;5.53;;;2.05;;
44532;SDS011;48673;53.016;-2.258;2022-07-17T11:08:07;2.92;;;2.05;;
44532;SDS011;48673;53.016;-2.258;2022-07-17T11:10:38;2.70;;;1.98;;
44532;SDS011;48673;53.016;-2.258;2022-07-17T11:13:15;6.25;;;2.40;;
44532;SDS011;48673;53.016;-2.258;2022-07-17T11:15:45;2.42;;;1.65;;
44532;SDS011;48673;53.016;-2.258;2022-07-17T11:18:15;3.05;;;2.17;;
44532;SDS011;48673;53.016;-2.258;2022-07-17T11:23:28;6.28;;;2.38;;
44532;SDS011;48673;53.016;-2.258;2022-07-17T11:28:34;3.90;;;2.03;;
44532;SDS011;48673;53.016;-2.258;2022-07-17T11:33:47;2.63;;;1.90;;
44532;SDS011;48673;53.016;-2.258;2022-07-17T11:36:23;3.70;;;2.25;;
44532;SDS011;48673;53.016;-2.258;2022-07-17T11:38:56;6.35;;;2.10;;
44532;SDS011;48673;53.016;-2.258;2022-07-17T11:41:36;4.07;;;2.03;;
44532;SDS011;48673;53.016;-2.258;2022-07-17T11:44:16;3.58;;;2.25;;
44532;SDS011;48673;53.016;-2.258;2022-07-17T11:46:47;4.20;;;2.10;;
44532;SDS011;48673;53.016;-2.258;2022-07-17T11:49:24;2.92;;;2.03;;
44532;SDS011;48673;53.016;-2.258;2022-07-17T11:51:57;7.15;;;2.95;;
44532;SDS011;48673;53.016;-2.258;2022-07-17T11:54:27;3.95;;;2.17;;
44532;SDS011;48673;53.016;-2.258;2022-07-17T11:56:58;10.20;;;2.30;;
44532;SDS011;48673;53.016;-2.258;2022-07-17T11:59:29;7.57;;;2.25;;
44532;SDS011;48673;53.016;-2.258;2022-07-17T12:02:06;8.48;;;2.40;;
44532;SDS011;48673;53.016;-2.258;2022-07-17T12:04:36;3.67;;;2.33;;
44532;SDS011;48673;53.016;-2.258;2022-07-17T12:07:15;3.75;;;2.20;;
44532;SDS011;48673;53.016;-2.258;2022-07-17T12:09:52;5.35;;;1.98;;
44532;SDS011;48673;53.016;-2.258;2022-07-17T12:12:22;4.82;;;2.30;;
44532;SDS011;48673;53.016;-2.258;2022-07-17T12:14:56;4.25;;;2.05;;
44532;SDS011;48673;53.016;-2.258;2022-07-17T12:17:36;7.47;;;2.80;;
44532;SDS011;48673;53.016;-2.258;2022-07-17T12:20:14;3.63;;;2.60;;
44532;SDS011;48673;53.016;-2.258;2022-07-17T12:22:48;8.33;;;2.57;;
44532;SDS011;48673;53.016;-2.258;2022-07-17T12:25:24;4.30;;;2.55;;
44532;SDS011;48673;53.016;-2.258;2022-07-17T12:27:53;4.03;;;2.53;;
44532;SDS011;48673;53.016;-2.258;2022-07-17T12:30:22;6.82;;;2.67;;
44532;SDS011;48673;53.016;-2.258;2022-07-17T12:32:53;5.55;;;2.65;;
44532;SDS011;48673;53.016;-2.258;2022-07-17T12:35:21;3.67;;;2.17;;
44532;SDS011;48673;53.016;-2.258;2022-07-17T12:37:50;3.80;;;2.67;;
44532;SDS011;48673;53.016;-2.258;2022-07-17T12:40:18;4.82;;;3.20;;
44532;SDS011;48673;53.016;-2.258;2022-07-17T12:42:46;2.75;;;2.33;;
44532;SDS011;48673;53.016;-2.258;2022-07-17T12:45:14;4.90;;;2.50;;
44532;SDS011;48673;53.016;-2.258;2022-07-17T12:47:42;6.53;;;2.38;;
44532;SDS011;48673;53.016;-2.258;2022-07-17T12:50:12;4.78;;;2.58;;
44532;SDS011;48673;53.016;-2.258;2022-07-17T12:52:40;4.63;;;3.05;;
44532;SDS011;48673;53.016;-2.258;2022-07-17T12:55:09;4.57;;;2.27;;
44532;SDS011;48673;53.016;-2.258;2022-07-17T12:57:38;3.58;;;2.33;;
44532;SDS011;48673;53.016;-2.258;2022-07-17T13:00:06;3.70;;;2.70;;
44532;SDS011;48673;53.016;-2.258;2022-07-17T13:05:22;5.90;;;3.15;;
44532;SDS011;48673;53.016;-2.258;2022-07-17T13:07:52;3.17;;;2.42;;
44532;SDS011;48673;53.016;-2.258;2022-07-17T13:10:20;3.13;;;2.45;;
44532;SDS011;48673;53.016;-2.258;2022-07-17T13:12:49;5.57;;;2.60;;
44532;SDS011;48673;53.016;-2.258;2022-07-17T13:17:53;3.28;;;2.17;;
44532;SDS011;48673;53.016;-2.258;2022-07-17T13:20:27;4.50;;;2.78;;
44532;SDS011;48673;53.016;-2.258;2022-07-17T13:22:56;4.80;;;2.10;;
44532;SDS011;48673;53.016;-2.258;2022-07-17T13:25:24;3.75;;;2.40;;
44532;SDS011;48673;53.016;-2.258;2022-07-17T13:27:52;6.10;;;2.77;;
44532;SDS011;48673;53.016;-2.258;2022-07-17T13:30:20;5.27;;;2.70;;
44532;SDS011;48673;53.016;-2.258;2022-07-17T13:32:47;7.57;;;2.47;;
44532;SDS011;48673;53.016;-2.258;2022-07-17T13:35:16;3.65;;;2.38;;
44532;SDS011;48673;53.016;-2.258;2022-07-17T13:37:46;6.70;;;2.38;;
44532;SDS011;48673;53.016;-2.258;2022-07-17T13:40:16;6.90;;;2.83;;
44532;SDS011;48673;53.016;-2.258;2022-07-17T13:42:46;4.28;;;2.55;;
44532;SDS011;48673;53.016;-2.258;2022-07-17T13:45:15;3.72;;;2.55;;
44532;SDS011;48673;53.016;-2.258;2022-07-17T13:47:44;7.22;;;2.15;;
44532;SDS011;48673;53.016;-2.258;2022-07-17T13:50:12;7.95;;;2.72;;
44532;SDS011;48673;53.016;-2.258;2022-07-17T13:52:41;7.88;;;2.28;;
44532;SDS011;48673;53.016;-2.258;2022-07-17T13:55:10;6.68;;;2.22;;
44532;SDS011;48673;53.016;-2.258;2022-07-17T13:57:57;4.22;;;1.95;;
44532;SDS011;48673;53.016;-2.258;2022-07-17T14:02:54;3.22;;;2.17;;
44532;SDS011;48673;53.016;-2.258;2022-07-17T14:10:18;2.45;;;1.92;;
44532;SDS011;48673;53.016;-2.258;2022-07-17T14:12:46;2.60;;;2.00;;
44532;SDS011;48673;53.016;-2.258;2022-07-17T14:17:42;2.92;;;2.05;;
44532;SDS011;48673;53.016;-2.258;2022-07-17T14:20:10;3.97;;;2.53;;
44532;SDS011;48673;53.016;-2.258;2022-07-17T14:22:39;4.57;;;2.90;;
44532;SDS011;48673;53.016;-2.258;2022-07-17T14:25:07;3.00;;;2.08;;
44532;SDS011;48673;53.016;-2.258;2022-07-17T14:27:37;5.82;;;2.45;;
44532;SDS011;48673;53.016;-2.258;2022-07-17T14:35:01;3.53;;;2.20;;
44532;SDS011;48673;53.016;-2.258;2022-07-17T14:37:30;4.15;;;2.13;;
44532;SDS011;48673;53.016;-2.258;2022-07-17T14:39:59;2.60;;;2.28;;
44532;SDS011;48673;53.016;-2.258;2022-07-17T14:42:28;9.07;;;3.13;;
44532;SDS011;48673;53.016;-2.258;2022-07-17T14:44:57;9.02;;;2.72;;
44532;SDS011;48673;53.016;-2.258;2022-07-17T14:47:26;3.75;;;2.20;;
44532;SDS011;48673;53.016;-2.258;2022-07-17T14:49:54;5.78;;;2.08;;
44532;SDS011;48673;53.016;-2.258;2022-07-17T14:52:27;5.38;;;2.78;;
44532;SDS011;48673;53.016;-2.258;2022-07-17T14:54:57;6.90;;;2.47;;
44532;SDS011;48673;53.016;-2.258;2022-07-17T14:57:25;3.13;;;1.65;;
44532;SDS011;48673;53.016;-2.258;2022-07-17T14:59:55;6.28;;;2.53;;
44532;SDS011;48673;53.016;-2.258;2022-07-17T15:02:27;5.40;;;2.53;;
44532;SDS011;48673;53.016;-2.258;2022-07-17T15:07:26;4.28;;;2.30;;
44532;SDS011;48673;53.016;-2.258;2022-07-17T15:09:56;2.92;;;1.75;;
44532;SDS011;48673;53.016;-2.258;2022-07-17T15:12:25;7.20;;;1.90;;
44532;SDS011;48673;53.016;-2.258;2022-07-17T15:14:57;5.18;;;2.08;;
44532;SDS011;48673;53.016;-2.258;2022-07-17T15:17:28;5.70;;;2.08;;
44532;SDS011;48673;53.016;-2.258;2022-07-17T15:19:57;6.00;;;1.63;;
44532;SDS011;48673;53.016;-2.258;2022-07-17T15:22:29;2.90;;;1.70;;
44532;SDS011;48673;53.016;-2.258;2022-07-17T15:25:03;2.03;;;1.45;;
44532;SDS011;48673;53.016;-2.258;2022-07-17T15:27:40;4.80;;;1.92;;
44532;SDS011;48673;53.016;-2.258;2022-07-17T15:32:36;3.50;;;1.95;;
44532;SDS011;48673;53.016;-2.258;2022-07-17T15:35:06;4.72;;;1.98;;
44532;SDS011;48673;53.016;-2.258;2022-07-17T15:37:36;8.82;;;2.22;;
44532;SDS011;48673;53.016;-2.258;2022-07-17T15:40:05;4.70;;;2.20;;
44532;SDS011;48673;53.016;-2.258;2022-07-17T15:42:34;5.57;;;2.17;;
44532;SDS011;48673;53.016;-2.258;2022-07-17T15:45:05;4.35;;;1.88;;
44532;SDS011;48673;53.016;-2.258;2022-07-17T15:47:34;4.10;;;1.45;;
44532;SDS011;48673;53.016;-2.258;2022-07-17T15:52:39;3.80;;;1.70;;
44532;SDS011;48673;53.016;-2.258;2022-07-17T15:55:16;6.78;;;2.15;;
44532;SDS011;48673;53.016;-2.258;2022-07-17T15:57:47;3.08;;;2.03;;
44532;SDS011;48673;53.016;-2.258;2022-07-17T16:00:19;7.88;;;1.90;;
44532;SDS011;48673;53.016;-2.258;2022-07-17T16:02:51;8.73;;;1.80;;
44532;SDS011;48673;53.016;-2.258;2022-07-17T16:05:34;7.90;;;2.05;;
44532;SDS011;48673;53.016;-2.258;2022-07-17T16:08:22;2.78;;;1.75;;
44532;SDS011;48673;53.016;-2.258;2022-07-17T16:17:13;5.57;;;2.30;;
44532;SDS011;48673;53.016;-2.258;2022-07-17T16:22:40;3.55;;;2.00;;
44532;SDS011;48673;53.016;-2.258;2022-07-17T16:25:14;7.45;;;1.70;;
44532;SDS011;48673;53.016;-2.258;2022-07-17T16:27:44;3.45;;;1.65;;
44532;SDS011;48673;53.016;-2.258;2022-07-17T16:30:13;2.95;;;1.90;;
44532;SDS011;48673;53.016;-2.258;2022-07-17T16:32:42;2.53;;;1.77;;
44532;SDS011;48673;53.016;-2.258;2022-07-17T16:35:14;2.63;;;1.95;;
44532;SDS011;48673;53.016;-2.258;2022-07-17T16:37:42;7.45;;;2.45;;
44532;SDS011;48673;53.016;-2.258;2022-07-17T16:40:10;3.90;;;2.03;;
44532;SDS011;48673;53.016;-2.258;2022-07-17T16:42:40;4.07;;;1.98;;
44532;SDS011;48673;53.016;-2.258;2022-07-17T16:45:08;2.45;;;1.85;;
44532;SDS011;48673;53.016;-2.258;2022-07-17T16:47:36;6.28;;;2.40;;
44532;SDS011;48673;53.016;-2.258;2022-07-17T16:50:06;7.60;;;2.60;;
44532;SDS011;48673;53.016;-2.258;2022-07-17T16:52:35;4.90;;;2.45;;
44532;SDS011;48673;53.016;-2.258;2022-07-17T16:55:04;2.72;;;2.28;;
44532;SDS011;48673;53.016;-2.258;2022-07-17T16:57:36;4.20;;;2.25;;
44532;SDS011;48673;53.016;-2.258;2022-07-17T17:02:34;4.57;;;2.25;;
44532;SDS011;48673;53.016;-2.258;2022-07-17T17:05:03;3.13;;;2.00;;
44532;SDS011;48673;53.016;-2.258;2022-07-17T17:07:35;7.10;;;2.67;;
44532;SDS011;48673;53.016;-2.258;2022-07-17T17:10:06;5.63;;;2.30;;
44532;SDS011;48673;53.016;-2.258;2022-07-17T17:12:35;4.47;;;2.50;;
44532;SDS011;48673;53.016;-2.258;2022-07-17T17:15:06;3.50;;;1.92;;
44532;SDS011;48673;53.016;-2.258;2022-07-17T17:17:37;2.65;;;2.08;;
44532;SDS011;48673;53.016;-2.258;2022-07-17T17:20:07;2.50;;;1.98;;
44532;SDS011;48673;53.016;-2.258;2022-07-17T17:22:36;3.08;;;2.08;;
44532;SDS011;48673;53.016;-2.258;2022-07-17T17:25:06;6.22;;;2.00;;
44532;SDS011;48673;53.016;-2.258;2022-07-17T17:27:35;6.03;;;2.50;;
44532;SDS011;48673;53.016;-2.258;2022-07-17T17:30:04;5.40;;;2.08;;
44532;SDS011;48673;53.016;-2.258;2022-07-17T17:32:34;3.83;;;2.05;;
44532;SDS011;48673;53.016;-2.258;2022-07-17T17:35:03;3.35;;;2.10;;
44532;SDS011;48673;53.016;-2.258;2022-07-17T17:37:31;2.80;;;1.77;;
44532;SDS011;48673;53.016;-2.258;2022-07-17T17:40:02;5.07;;;1.85;;
44532;SDS011;48673;53.016;-2.258;2022-07-17T17:42:33;4.97;;;2.40;;
44532;SDS011;48673;53.016;-2.258;2022-07-17T17:45:02;6.57;;;1.95;;
44532;SDS011;48673;53.016;-2.258;2022-07-17T17:47:31;4.50;;;1.60;;
44532;SDS011;48673;53.016;-2.258;2022-07-17T17:50:07;3.53;;;2.28;;
44532;SDS011;48673;53.016;-2.258;2022-07-17T17:52:38;3.80;;;2.25;;
44532;SDS011;48673;53.016;-2.258;2022-07-17T17:55:06;5.07;;;2.55;;
44532;SDS011;48673;53.016;-2.258;2022-07-17T17:57:35;5.05;;;2.22;;
44532;SDS011;48673;53.016;-2.258;2022-07-17T18:00:03;7.23;;;2.23;;
44532;SDS011;48673;53.016;-2.258;2022-07-17T18:02:43;5.57;;;2.55;;
44532;SDS011;48673;53.016;-2.258;2022-07-17T18:05:14;4.55;;;2.47;;
44532;SDS011;48673;53.016;-2.258;2022-07-17T18:07:44;5.07;;;3.03;;
44532;SDS011;48673;53.016;-2.258;2022-07-17T18:10:13;12.50;;;5.00;;
44532;SDS011;48673;53.016;-2.258;2022-07-17T18:12:42;6.72;;;3.45;;
44532;SDS011;48673;53.016;-2.258;2022-07-17T18:15:10;5.80;;;3.30;;